createdAt,value
2022-09-09T00:02:31.351Z,82.00
2022-09-09T00:05:16.156Z,82.47
2022-09-09T00:07:55.872Z,82.97
2022-09-09T00:10:36.847Z,83.17
2022-09-09T00:13:21.285Z,82.99
2022-09-09T00:16:26.773Z,82.77
2022-09-09T00:19:03.033Z,84.00
2022-09-09T00:21:46.553Z,84.03
2022-09-09T00:24:42.915Z,84.19
2022-09-09T00:27:27.836Z,83.57
2022-09-09T00:30:02.871Z,84.30
2022-09-09T00:32:38.148Z,83.72
2022-09-09T00:35:42.966Z,83.67
2022-09-09T00:38:35.215Z,84.45
2022-09-09T00:41:10.690Z,84.74
2022-09-09T00:43:43.459Z,85.29
2022-09-09T00:46:14.395Z,85.70
2022-09-09T00:48:54.640Z,84.94
2022-09-09T00:51:59.664Z,84.78
2022-09-09T00:55:00.933Z,85.24
2022-09-09T00:57:39.043Z,85.20
2022-09-09T01:00:37.143Z,84.96
2022-09-09T01:03:30.920Z,85.29
2022-09-09T01:06:21.271Z,85.62
2022-09-09T01:09:08.832Z,85.39
2022-09-09T01:12:08.261Z,84.62
2022-09-09T01:14:39.035Z,85.22
2022-09-09T01:17:28.105Z,85.08
2022-09-09T01:20:19.707Z,85.33
2022-09-09T01:23:27.451Z,85.04
2022-09-09T01:26:21.189Z,85.34
2022-09-09T01:28:55.099Z,85.36
2022-09-09T01:32:06.226Z,85.35
2022-09-09T01:34:43.782Z,85.56
2022-09-09T01:37:15.849Z,85.44
2022-09-09T01:39:48.124Z,85.55
2022-09-09T01:42:21.332Z,85.95
2022-09-09T01:44:52.111Z,85.75
2022-09-09T01:47:23.041Z,85.56
2022-09-09T01:50:13.816Z,85.76
2022-09-09T01:52:46.698Z,86.04
2022-09-09T01:55:19.842Z,85.92
2022-09-09T01:58:28.057Z,85.53
2022-09-09T02:01:31.791Z,85.85
2022-09-09T02:04:11.154Z,86.16
2022-09-09T02:21:14.034Z,87.39
2022-09-09T02:23:46.939Z,87.39
2022-09-09T02:26:22.550Z,86.89
2022-09-09T02:29:01.401Z,86.78
2022-09-09T02:31:32.935Z,86.80
2022-09-09T02:34:13.095Z,87.75
2022-09-09T02:36:47.896Z,87.08
2022-09-09T02:39:18.920Z,86.92
2022-09-09T02:41:50.387Z,86.74
2022-09-09T02:44:22.525Z,87.20
2022-09-09T02:47:06.608Z,86.98
2022-09-09T02:49:36.929Z,86.54
2022-09-09T02:52:32.901Z,87.73
2022-09-09T02:55:14.965Z,87.71
2022-09-09T02:57:47.565Z,87.70
2022-09-09T03:00:27.103Z,88.13
2022-09-09T03:03:00.678Z,88.05
2022-09-09T03:05:31.292Z,87.96
2022-09-09T03:08:02.467Z,88.40
2022-09-09T03:10:33.107Z,88.15
2022-09-09T03:13:03.687Z,88.68
2022-09-09T03:15:39.666Z,88.71
2022-09-09T03:18:13.331Z,88.49
2022-09-09T03:20:45.289Z,88.65
2022-09-09T03:23:16.144Z,88.92
2022-09-09T03:25:52.145Z,88.81
2022-09-09T03:28:33.380Z,89.13
2022-09-09T03:31:08.072Z,89.25
2022-09-09T03:33:43.654Z,89.11
2022-09-09T03:36:17.727Z,89.07
2022-09-09T03:38:48.201Z,89.01
2022-09-09T03:41:19.352Z,88.64
2022-09-09T03:43:50.142Z,88.72
2022-09-09T03:46:21.744Z,88.65
2022-09-09T03:48:57.382Z,88.71
2022-09-09T03:51:28.062Z,89.39
2022-09-09T03:54:00.424Z,89.21
2022-09-09T03:56:31.957Z,89.76
2022-09-09T03:59:02.958Z,89.42
2022-09-09T04:01:33.945Z,89.63
2022-09-09T04:04:04.979Z,89.39
2022-09-09T04:06:35.348Z,88.85
2022-09-09T04:09:05.957Z,88.88
2022-09-09T04:11:37.575Z,89.25
2022-09-09T04:14:11.132Z,88.47
2022-09-09T04:16:46.434Z,88.82
2022-09-09T04:19:17.213Z,88.90
2022-09-09T04:21:47.989Z,88.86
2022-09-09T04:24:18.577Z,88.96
2022-09-09T04:26:49.494Z,89.24
2022-09-09T04:29:20.453Z,88.40
2022-09-09T04:31:51.057Z,87.98
2022-09-09T04:34:21.679Z,88.21
2022-09-09T04:36:54.131Z,88.14
2022-09-09T04:39:24.638Z,87.72
2022-09-09T04:41:55.531Z,87.31
2022-09-09T04:44:26.291Z,86.78
2022-09-09T04:46:57.709Z,86.75
2022-09-09T04:49:28.324Z,86.76
2022-09-09T04:51:58.904Z,86.79
2022-09-09T04:54:30.689Z,86.47
2022-09-09T04:57:01.345Z,86.66
2022-09-09T04:59:32.476Z,86.19
2022-09-09T05:02:06.701Z,86.23
2022-09-09T05:04:37.196Z,85.82
2022-09-09T05:07:09.052Z,85.56
2022-09-09T05:09:39.569Z,85.67
2022-09-09T05:12:10.671Z,85.25
2022-09-09T05:14:46.742Z,85.09
2022-09-09T05:17:17.449Z,84.84
2022-09-09T05:19:48.417Z,85.26
2022-09-09T05:22:25.626Z,84.94
2022-09-09T05:24:57.237Z,84.60
2022-09-09T05:39:28.039Z,83.82
2022-09-09T05:41:59.291Z,83.08
2022-09-09T05:44:29.914Z,83.10
2022-09-09T05:47:00.618Z,83.12
2022-09-09T05:49:31.249Z,82.90
2022-09-09T05:52:02.623Z,83.12
2022-09-09T05:54:33.263Z,82.31
2022-09-09T05:57:04.307Z,82.24
2022-09-09T05:59:34.720Z,82.16
2022-09-09T06:02:06.125Z,82.32
2022-09-09T06:04:39.990Z,81.95
2022-09-09T06:07:10.823Z,81.15
2022-09-09T06:09:41.448Z,81.48
2022-09-09T06:12:11.819Z,80.80
2022-09-09T06:14:46.161Z,81.13
2022-09-09T06:17:18.393Z,80.85
2022-09-09T06:19:48.795Z,81.62
2022-09-09T06:22:19.358Z,81.61
2022-09-09T06:24:49.781Z,81.06
2022-09-09T06:27:20.262Z,80.90
2022-09-09T06:29:50.822Z,79.81
2022-09-09T06:32:21.012Z,80.14
2022-09-09T06:34:53.016Z,79.32
2022-09-09T06:37:26.293Z,79.45
2022-09-09T06:39:57.224Z,79.60
2022-09-09T06:42:27.981Z,79.10
2022-09-09T06:45:09.508Z,79.05
2022-09-09T06:47:50.695Z,78.32
2022-09-09T06:50:23.310Z,77.22
2022-09-09T06:52:54.510Z,76.89
2022-09-09T06:55:25.706Z,76.19
2022-09-09T06:57:57.025Z,75.07
2022-09-09T07:00:27.865Z,74.55
2022-09-09T07:02:59.346Z,73.48
2022-09-09T07:05:31.034Z,73.01
2022-09-09T07:08:01.486Z,72.79
2022-09-09T07:10:33.107Z,72.99
2022-09-09T07:13:04.581Z,72.98
2022-09-09T07:15:36.115Z,71.43
2022-09-09T07:18:06.673Z,71.39
2022-09-09T07:20:38.707Z,71.52
2022-09-09T07:23:09.265Z,71.68
2022-09-09T07:25:40.071Z,71.09
2022-09-09T07:28:10.869Z,70.24
2022-09-09T07:30:42.482Z,69.81
2022-09-09T07:33:13.255Z,70.28
2022-09-09T07:35:44.192Z,71.66
2022-09-09T07:38:18.076Z,71.21
2022-09-09T07:40:49.235Z,71.35
2022-09-09T07:43:21.046Z,71.49
2022-09-09T07:45:59.754Z,71.62
2022-09-09T07:48:31.042Z,70.78
2022-09-09T07:51:11.117Z,70.82
2022-09-09T07:53:42.151Z,70.49
2022-09-09T07:56:14.904Z,70.48
2022-09-09T07:58:49.348Z,69.40
2022-09-09T08:01:30.338Z,69.37
2022-09-09T08:04:07.890Z,69.88
2022-09-09T08:06:42.815Z,70.33
2022-09-09T08:09:13.710Z,69.44
2022-09-09T08:11:46.201Z,69.33
2022-09-09T08:14:17.440Z,69.81
2022-09-09T08:16:54.844Z,69.54
2022-09-09T08:19:27.108Z,69.87
2022-09-09T08:21:57.828Z,69.67
2022-09-09T08:24:28.335Z,69.38
2022-09-09T08:26:59.138Z,68.65
2022-09-09T08:29:31.110Z,69.16
2022-09-09T08:32:02.203Z,69.04
2022-09-09T08:34:33.711Z,69.46
2022-09-09T08:37:08.782Z,69.88
2022-09-09T08:39:43.282Z,70.04
2022-09-09T08:42:59.578Z,68.85
2022-09-09T08:45:37.797Z,67.16
2022-09-09T08:48:48.231Z,68.80
2022-09-09T08:51:19.871Z,68.06
2022-09-09T08:53:59.528Z,68.43
2022-09-09T08:56:33.786Z,67.44
2022-09-09T08:59:06.145Z,67.63
2022-09-09T09:01:52.663Z,66.62
2022-09-09T09:04:56.759Z,66.63
2022-09-09T09:07:45.802Z,67.16
2022-09-09T09:10:48.566Z,67.87
2022-09-09T09:13:57.641Z,66.97
2022-09-09T09:16:56.422Z,67.37
2022-09-09T09:19:28.783Z,66.60
2022-09-09T09:22:09.633Z,67.94
2022-09-09T09:24:57.447Z,66.57
2022-09-09T09:27:36.408Z,66.78
2022-09-09T09:30:28.622Z,67.03
2022-09-09T09:33:14.756Z,65.79
2022-09-09T09:35:45.111Z,66.46
2022-09-09T09:41:15.961Z,64.61
2022-09-09T09:43:57.041Z,64.86
2022-09-09T09:46:28.699Z,65.68
2022-09-09T09:49:13.166Z,66.33
2022-09-09T09:51:44.241Z,64.87
2022-09-09T09:54:25.774Z,63.43
2022-09-09T09:57:09.588Z,61.88
2022-09-09T09:59:43.861Z,61.96
2022-09-09T10:02:27.864Z,62.92
2022-09-09T10:05:27.217Z,66.79
2022-09-09T10:08:12.018Z,66.60
2022-09-09T10:11:09.666Z,70.76
2022-09-09T10:13:47.806Z,72.73
2022-09-09T10:16:31.353Z,73.33
2022-09-09T10:19:11.679Z,75.50
2022-09-09T10:21:57.058Z,85.11
2022-09-09T10:24:43.947Z,89.58
2022-09-09T10:27:42.245Z,89.86
2022-09-09T10:30:28.129Z,93.48
2022-09-09T10:33:11.322Z,96.49
2022-09-09T10:36:14.717Z,95.38
2022-09-09T10:39:15.864Z,94.84
2022-09-09T10:41:55.275Z,95.67
2022-09-09T10:44:36.676Z,95.33
2022-09-09T10:47:27.841Z,95.71
2022-09-09T10:51:00.044Z,94.35
2022-09-09T10:53:59.357Z,93.26
2022-09-09T10:56:31.511Z,93.91
2022-09-09T10:59:26.499Z,93.81
2022-09-09T11:02:09.036Z,93.57
2022-09-09T11:05:05.303Z,93.70
2022-09-09T11:07:47.118Z,93.80
2022-09-09T11:10:32.650Z,93.24
2022-09-09T11:13:09.511Z,93.62
2022-09-09T11:15:53.374Z,95.72
2022-09-09T11:18:26.044Z,96.19
2022-09-09T11:21:03.296Z,97.13
2022-09-09T11:23:43.424Z,97.44
2022-09-09T11:26:21.717Z,97.74
2022-09-09T11:29:42.467Z,97.36
2022-09-09T11:32:27.859Z,97.59
2022-09-09T11:35:05.175Z,98.30
2022-09-09T11:37:50.017Z,98.27
2022-09-09T11:40:25.741Z,98.39
2022-09-09T11:43:12.205Z,98.18
2022-09-09T11:45:45.142Z,98.44
2022-09-09T11:48:38.962Z,97.96
2022-09-09T11:51:17.300Z,98.20
2022-09-09T11:53:58.337Z,97.91
2022-09-09T11:56:33.652Z,98.04
2022-09-09T11:59:05.911Z,97.74
2022-09-09T12:01:36.439Z,97.81
2022-09-09T12:04:12.591Z,97.32
2022-09-09T12:07:18.689Z,97.22
2022-09-09T12:09:59.189Z,96.94
2022-09-09T12:12:47.380Z,96.88
2022-09-09T12:15:28.318Z,97.04
2022-09-09T12:18:05.013Z,95.38
2022-09-09T12:20:42.471Z,96.39
2022-09-09T12:23:29.073Z,95.45
2022-09-09T12:26:24.980Z,96.76
2022-09-09T12:29:37.926Z,94.70
2022-09-09T12:32:21.039Z,94.75
2022-09-09T12:35:02.485Z,95.62
2022-09-09T12:37:43.059Z,95.07
2022-09-09T12:40:27.154Z,95.53
2022-09-09T12:42:58.320Z,96.06
2022-09-09T12:45:33.113Z,96.14
2022-09-09T12:48:06.262Z,95.71
2022-09-09T12:50:51.236Z,95.62
2022-09-09T12:53:36.453Z,94.68
2022-09-09T12:56:12.380Z,94.00
2022-09-09T12:58:50.157Z,94.17
2022-09-09T13:01:28.087Z,93.45
2022-09-09T13:03:59.197Z,93.15
2022-09-09T13:06:32.133Z,92.56
2022-09-09T13:09:04.586Z,89.96
2022-09-09T13:11:34.983Z,91.66
2022-09-09T13:14:06.087Z,91.13
2022-09-09T13:16:42.792Z,92.12
2022-09-09T13:19:19.151Z,92.64
2022-09-09T13:21:50.494Z,91.21
2022-09-09T13:24:38.712Z,91.38
2022-09-09T13:27:36.733Z,92.16
2022-09-09T13:30:43.244Z,92.07
2022-09-09T13:33:22.676Z,91.01
2022-09-09T13:35:58.160Z,89.79
2022-09-09T13:38:31.022Z,88.92
2022-09-09T13:41:09.365Z,89.05
2022-09-09T13:43:51.797Z,87.95
2022-09-09T13:46:42.475Z,86.90
2022-09-09T13:49:12.872Z,86.68
2022-09-09T13:51:45.112Z,87.09
2022-09-09T13:54:17.930Z,85.95
2022-09-09T13:56:48.634Z,85.81
2022-09-09T13:59:22.294Z,84.30
2022-09-09T14:01:54.635Z,84.05
2022-09-09T14:04:25.038Z,85.84
2022-09-09T14:06:56.030Z,84.92
2022-09-09T14:09:26.524Z,85.26
2022-09-09T14:11:59.987Z,82.53
2022-09-09T14:14:30.656Z,82.47
2022-09-09T14:17:02.660Z,82.67
2022-09-09T14:19:35.791Z,81.47
2022-09-09T14:22:07.033Z,80.06
2022-09-09T14:24:37.980Z,80.64
2022-09-09T14:27:08.657Z,82.60
2022-09-09T14:29:38.994Z,82.91
2022-09-09T14:32:12.599Z,83.63
2022-09-09T14:34:43.462Z,83.50
2022-09-09T14:37:14.002Z,79.47
2022-09-09T14:39:46.399Z,77.87
2022-09-09T14:42:18.264Z,74.60
2022-09-09T14:44:48.603Z,77.07
2022-09-09T14:47:19.046Z,76.87
2022-09-09T14:49:51.924Z,75.18
2022-09-09T14:52:22.751Z,71.40
2022-09-09T14:54:53.290Z,74.72
2022-09-09T14:57:23.744Z,71.68
2022-09-09T14:59:54.395Z,69.07
2022-09-09T15:02:25.131Z,71.94
2022-09-09T15:04:59.708Z,73.34
2022-09-09T15:07:30.642Z,70.86
2022-09-09T15:10:01.330Z,71.15
2022-09-09T15:12:32.302Z,71.54
2022-09-09T15:15:02.676Z,70.80
2022-09-09T15:17:33.375Z,71.83
2022-09-09T15:20:05.310Z,71.81
2022-09-09T15:22:36.254Z,72.82
2022-09-09T15:25:08.477Z,71.87
2022-09-09T15:27:41.440Z,73.51
2022-09-09T15:30:12.496Z,73.35
2022-09-09T15:32:42.902Z,69.16
2022-09-09T15:35:13.404Z,71.29
2022-09-09T15:37:43.698Z,69.28
2022-09-09T15:40:14.701Z,69.05
2022-09-09T15:42:45.352Z,68.89
2022-09-09T15:45:17.555Z,69.32
2022-09-09T15:47:51.454Z,67.29
2022-09-09T15:50:22.111Z,67.30
2022-09-09T15:52:53.761Z,67.77
2022-09-09T15:55:26.774Z,67.44
2022-09-09T15:57:57.595Z,65.46
2022-09-09T16:00:28.476Z,66.30
2022-09-09T16:02:58.894Z,64.78
2022-09-09T16:05:29.726Z,66.36
2022-09-09T16:08:00.652Z,65.52
2022-09-09T16:10:31.134Z,65.95
2022-09-09T16:13:21.123Z,64.66
2022-09-09T16:15:57.696Z,66.21
2022-09-09T16:18:28.563Z,65.48
2022-09-09T16:20:58.948Z,65.22
2022-09-09T16:23:29.553Z,64.64
2022-09-09T16:26:03.762Z,64.89
2022-09-09T16:28:36.034Z,64.90
2022-09-09T16:31:12.443Z,65.16
2022-09-09T16:33:43.929Z,64.26
2022-09-09T16:36:22.658Z,64.39
2022-09-09T16:38:59.531Z,64.95
2022-09-09T16:41:31.883Z,64.63
2022-09-09T16:44:08.868Z,65.50
2022-09-09T16:46:42.086Z,66.04
2022-09-09T16:49:14.990Z,65.43
2022-09-09T16:51:50.874Z,66.01
2022-09-09T16:54:22.117Z,65.95
2022-09-09T16:56:52.506Z,65.94
2022-09-09T16:59:25.776Z,66.15
2022-09-09T17:01:56.777Z,67.04
2022-09-09T17:04:30.821Z,66.80
2022-09-09T17:07:02.760Z,65.99
2022-09-09T17:09:33.641Z,68.50
2022-09-09T17:12:04.299Z,68.29
2022-09-09T17:14:34.688Z,68.50
2022-09-09T17:17:30.202Z,68.80
2022-09-09T17:19:57.606Z,69.06
2022-09-09T17:22:28.973Z,68.94
2022-09-09T17:24:59.750Z,68.31
2022-09-09T17:27:30.686Z,69.68
2022-09-09T17:30:01.167Z,70.39
2022-09-09T17:32:32.863Z,69.33
2022-09-09T17:35:03.285Z,69.14
2022-09-09T17:37:33.805Z,71.07
2022-09-09T17:40:05.021Z,71.42
2022-09-09T17:42:35.567Z,71.53
2022-09-09T17:45:06.647Z,71.26
2022-09-09T17:47:37.267Z,70.27
2022-09-09T17:50:08.879Z,72.34
2022-09-09T17:52:39.468Z,72.91
2022-09-09T17:55:11.460Z,72.95
2022-09-09T17:57:42.013Z,72.56
2022-09-09T18:00:12.896Z,73.45
2022-09-09T18:02:43.086Z,74.98
2022-09-09T18:05:13.435Z,75.49
2022-09-09T18:07:43.976Z,75.61
2022-09-09T18:10:14.480Z,75.83
2022-09-09T18:12:44.619Z,76.50
2022-09-09T18:15:20.947Z,76.69
2022-09-09T18:18:03.088Z,76.57
2022-09-09T18:20:33.437Z,77.06
2022-09-09T18:23:04.091Z,77.00
2022-09-09T18:25:39.461Z,77.53
2022-09-09T18:28:10.852Z,77.01
2022-09-09T18:30:41.940Z,77.47
2022-09-09T18:33:12.381Z,77.77
2022-09-09T18:35:42.740Z,77.93
2022-09-09T18:38:13.135Z,78.11
2022-09-09T18:40:43.719Z,78.63
2022-09-09T18:43:14.269Z,78.69
2022-09-09T18:45:45.723Z,79.11
2022-09-09T18:48:16.188Z,79.66
2022-09-09T18:50:47.268Z,79.64
2022-09-09T18:53:18.130Z,79.77
2022-09-09T18:55:48.494Z,80.59
2022-09-09T18:58:18.831Z,81.06
2022-09-09T19:00:49.273Z,80.76
2022-09-09T19:03:20.068Z,80.88
2022-09-09T19:05:50.591Z,81.77
2022-09-09T19:08:22.717Z,81.84
2022-09-09T19:10:53.703Z,81.95
2022-09-09T19:13:24.553Z,82.27
2022-09-09T19:15:57.508Z,82.49
2022-09-09T19:18:28.762Z,83.32
2022-09-09T19:20:59.611Z,83.48
2022-09-09T19:23:32.947Z,83.61
2022-09-09T19:26:09.544Z,83.65
2022-09-09T19:28:41.945Z,83.42
2022-09-09T19:31:12.813Z,83.59
2022-09-09T19:33:44.921Z,84.28
2022-09-09T19:36:19.208Z,84.29
2022-09-09T19:38:50.168Z,84.83
2022-09-09T19:41:26.493Z,85.22
2022-09-09T19:44:02.566Z,85.12
2022-09-09T19:46:35.349Z,85.51
2022-09-09T19:49:07.081Z,86.15
2022-09-09T19:51:38.211Z,86.23
2022-09-09T19:54:11.031Z,86.52
2022-09-09T19:56:42.894Z,86.61
2022-09-09T19:59:15.722Z,86.99
2022-09-09T20:01:47.007Z,86.94
2022-09-09T20:04:19.288Z,87.31
2022-09-09T20:06:50.026Z,87.53
2022-09-09T20:09:21.096Z,88.39
2022-09-09T20:11:54.233Z,87.77
2022-09-09T20:14:25.669Z,88.32
2022-09-09T20:16:57.807Z,88.91
2022-09-09T20:19:28.677Z,89.43
2022-09-09T20:22:00.245Z,89.77
2022-09-09T20:24:30.778Z,89.92
2022-09-09T20:27:01.234Z,89.97
2022-09-09T20:29:32.073Z,89.41
2022-09-09T20:32:02.659Z,89.64
2022-09-09T20:34:33.301Z,88.71
2022-09-09T20:37:04.133Z,89.16
2022-09-09T20:39:34.896Z,89.27
2022-09-09T20:42:06.582Z,90.33
2022-09-09T20:44:37.117Z,90.40
2022-09-09T20:47:08.452Z,91.23
2022-09-09T20:49:38.981Z,91.85
2022-09-09T20:52:12.395Z,92.28
2022-09-09T20:54:43.199Z,92.83
2022-09-09T20:57:14.735Z,93.04
2022-09-09T20:59:47.320Z,92.83
2022-09-09T21:02:19.568Z,93.94
2022-09-09T21:04:50.654Z,94.42
2022-09-09T21:07:21.139Z,97.01
2022-09-09T21:09:52.133Z,98.67
2022-09-09T21:12:22.712Z,98.89
2022-09-09T21:14:53.607Z,99.07
2022-09-09T21:17:24.272Z,99.85
2022-09-09T21:19:57.292Z,99.99
2022-09-09T21:22:28.005Z,99.77
2022-09-09T21:24:59.885Z,99.99
2022-09-09T21:27:31.049Z,99.97
2022-09-09T21:30:06.792Z,99.42
2022-09-09T21:32:40.274Z,99.77
2022-09-09T21:35:13.445Z,96.43
2022-09-09T21:37:44.036Z,96.24
2022-09-09T21:40:14.579Z,96.71
2022-09-09T21:42:45.451Z,97.07
2022-09-09T21:45:16.140Z,97.20
2022-09-09T21:47:48.242Z,97.75
2022-09-09T21:50:19.453Z,98.75
2022-09-09T21:52:50.717Z,98.26
2022-09-09T21:55:21.143Z,98.98
2022-09-09T21:57:53.015Z,99.99
2022-09-09T22:00:25.573Z,99.99
2022-09-09T22:02:56.058Z,99.74
2022-09-09T22:05:26.980Z,99.99
2022-09-09T22:07:57.826Z,99.71
2022-09-09T22:10:31.041Z,99.99
2022-09-09T22:13:01.453Z,99.99
2022-09-09T22:15:34.020Z,99.99
2022-09-09T22:18:05.773Z,99.15
2022-09-09T22:20:43.179Z,99.60
2022-09-09T22:23:14.716Z,99.43
2022-09-09T22:25:46.092Z,99.99
2022-09-09T22:28:17.665Z,99.60
2022-09-09T22:30:49.033Z,99.99
2022-09-09T22:33:21.298Z,97.98
2022-09-09T22:35:51.756Z,98.58
2022-09-09T22:38:23.625Z,98.49
2022-09-09T22:40:54.850Z,98.14
2022-09-09T22:43:25.349Z,97.10
2022-09-09T22:45:56.004Z,97.33
2022-09-09T22:48:26.503Z,98.23
2022-09-09T22:51:02.963Z,97.62
2022-09-09T22:53:35.176Z,97.68
2022-09-09T22:56:14.228Z,98.67
2022-09-09T22:58:44.959Z,98.50
2022-09-09T23:01:19.220Z,97.96
2022-09-09T23:03:51.818Z,98.28
2022-09-09T23:06:28.188Z,98.63
2022-09-09T23:09:01.129Z,99.07
2022-09-09T23:11:35.156Z,98.58
2022-09-09T23:14:08.875Z,97.94
2022-09-09T23:16:42.108Z,97.94
2022-09-09T23:19:17.107Z,98.54
2022-09-09T23:21:48.548Z,98.44
2022-09-09T23:24:20.357Z,98.83
2022-09-09T23:26:51.603Z,99.23
2022-09-09T23:29:22.858Z,98.21
2022-09-09T23:31:53.704Z,99.66
2022-09-09T23:34:24.101Z,98.52
2022-09-09T23:36:54.912Z,97.02
2022-09-09T23:39:25.343Z,97.01
2022-09-09T23:41:56.349Z,98.76
2022-09-09T23:44:26.972Z,99.83
2022-09-09T23:46:57.418Z,99.20
2022-09-09T23:49:27.925Z,98.53
2022-09-09T23:51:59.025Z,97.31
2022-09-09T23:54:29.573Z,99.01
2022-09-09T23:57:00.082Z,98.87
2022-09-09T23:59:31.169Z,99.14
